Terminal Aerodrome Forecast
Issued by NWS Cleveland, OH

Home | Current Version | Previous Version | Text Only | Print | Product List | Glossary Off
Versions: 1 2 3 4 5 6 7 8 9 10 11 12 13

000
FTUS41 KCLE 181700
TAFCAK
TAF
KCAK 181724Z 1818/1918 26008KT P6SM SCT150 BKN250
     FM182300 34006KT P6SM SCT040 BKN200
     FM190100 02006KT P6SM SCT025=

USA.gov is the U.S. government's official web portal to all federal, state and local government web resources and services.